Time;durP1;ratioP1;P1;durP2;ratioP2;P2;SDS_P1;SDS_P2;PMS_P1;PMS_P2;Temp;Humidity;BMP_temperature;BMP_pressure;BME280_temperature;BME280_humidity;BME280_pressure;Samples;Min_cycle;Max_cycle;Signal;HPM_P1;HPM_P2
2022/06/11 00:00:05;;;;;;;4.90;4.50;;;;;;;12.57;93.20;98215.88;6231735;28;20238;-85
2022/06/11 00:03:07;;;;;;;5.27;4.87;;;;;;;12.56;92.81;98218.63;6252094;28;20211;-84
2022/06/11 00:06:10;;;;;;;5.00;4.60;;;;;;;12.54;93.04;98224.06;6252132;28;20302;-84
2022/06/11 00:09:13;;;;;;;7.90;5.60;;;;;;;12.53;93.26;98219.72;6233878;28;20819;-85
2022/06/11 00:12:16;;;;;;;5.60;4.70;;;;;;;12.51;93.28;98208.41;6212320;28;20717;-85
2022/06/11 00:15:18;;;;;;;4.93;4.30;;;;;;;12.50;93.17;98211.16;6211146;28;20223;-85
2022/06/11 00:18:22;;;;;;;5.97;4.97;;;;;;;12.48;93.29;98213.94;6228184;28;20293;-84
2022/06/11 00:21:26;;;;;;;5.17;4.77;;;;;;;12.46;93.50;98215.03;6195733;28;20277;-85
2022/06/11 00:24:29;;;;;;;5.03;4.57;;;;;;;12.43;93.57;98209.97;6211272;28;20838;-84
2022/06/11 00:27:31;;;;;;;5.67;4.40;;;;;;;12.42;93.56;98219.72;6227745;28;20686;-85
2022/06/11 00:30:34;;;;;;;6.10;4.60;;;;;;;12.38;93.80;98207.69;6210819;28;20223;-85
2022/06/11 00:33:37;;;;;;;5.57;5.07;;;;;;;12.38;93.54;98220.06;6195795;28;20223;-85
2022/06/11 00:36:42;;;;;;;5.53;5.13;;;;;;;12.38;93.78;98223.56;6210810;28;20700;-85
2022/06/11 00:39:45;;;;;;;8.27;5.20;;;;;;;12.36;93.65;98222.03;6211011;28;20603;-85
2022/06/11 00:42:47;;;;;;;5.87;5.23;;;;;;;12.33;93.87;98220.44;6230614;28;20786;-85
2022/06/11 00:45:58;;;;;;;6.57;6.07;;;;;;;12.34;94.10;98216.00;6196011;28;20302;-85
2022/06/11 00:49:02;;;;;;;6.00;5.40;;;;;;;12.32;93.98;98225.88;6227109;28;20227;-85
2022/06/11 00:52:13;;;;;;;6.13;5.57;;;;;;;12.28;93.95;98222.59;6210064;28;20260;-85
2022/06/11 00:55:24;;;;;;;6.63;5.87;;;;;;;12.25;93.94;98217.56;6180506;28;20714;-85
2022/06/11 00:58:33;;;;;;;9.53;5.40;;;;;;;12.25;94.39;98208.78;6189488;28;20329;-85
2022/06/11 01:01:53;;;;;;;5.33;4.83;;;;;;;12.24;94.02;98212.41;6210381;28;20227;-85
2022/06/11 01:04:58;;;;;;;5.67;5.20;;;;;;;12.20;94.52;98204.69;6213970;28;20236;-85
2022/06/11 01:08:15;;;;;;;9.43;5.83;;;;;;;12.19;94.39;98210.09;6221127;28;20312;-85
2022/06/11 01:11:55;;;;;;;5.63;5.03;;;;;;;12.19;94.53;98204.81;6231881;28;20634;-85
2022/06/11 01:15:25;;;;;;;5.97;5.47;;;;;;;12.16;94.86;98205.06;6237022;28;20235;-85
2022/06/11 01:18:46;;;;;;;8.47;6.10;;;;;;;12.17;95.18;98204.09;6256361;28;20235;-84
2022/06/11 01:22:06;;;;;;;6.70;6.10;;;;;;;12.19;95.10;98203.00;6239468;28;20231;-85
2022/06/11 01:25:38;;;;;;;6.80;6.20;;;;;;;12.21;95.38;98202.88;6253995;28;20231;-85
2022/06/11 01:28:59;;;;;;;6.43;5.83;;;;;;;12.21;95.57;98194.94;6257022;28;20272;-85
2022/06/11 01:32:11;;;;;;;9.07;6.87;;;;;;;12.22;95.31;98196.63;6256324;28;20220;-85
2022/06/11 01:35:39;;;;;;;6.90;6.27;;;;;;;12.25;95.74;98195.56;6228030;28;20226;-85
2022/06/11 01:38:59;;;;;;;8.17;6.43;;;;;;;12.18;95.54;98193.38;6239219;28;20352;-85
2022/06/11 01:42:07;;;;;;;7.17;6.40;;;;;;;12.18;95.60;98188.09;6237654;28;20246;-84
2022/06/11 01:45:26;;;;;;;7.03;6.47;;;;;;;12.17;95.76;98190.88;6239350;28;20214;-85
2022/06/11 01:48:29;;;;;;;6.30;5.60;;;;;;;12.14;95.61;98191.94;6237338;28;20219;-85
2022/06/11 01:52:02;;;;;;;7.27;6.57;;;;;;;12.18;95.92;98192.53;6257278;28;20710;-85
2022/06/11 01:55:26;;;;;;;13.57;7.00;;;;;;;12.15;96.13;98195.44;6239118;28;20234;-84
2022/06/11 01:59:03;;;;;;;6.63;6.03;;;;;;;12.14;96.05;98194.59;6238403;28;20787;-84
2022/06/11 02:02:31;;;;;;;7.17;6.47;;;;;;;12.13;96.19;98208.78;6238579;28;20758;-84
2022/06/11 02:05:56;;;;;;;6.80;6.17;;;;;;;12.13;96.10;98200.00;6226570;28;20240;-84
2022/06/11 02:09:03;;;;;;;7.03;5.90;;;;;;;12.11;96.08;98209.84;6179484;28;20343;-84
2022/06/11 02:12:14;;;;;;;7.07;6.47;;;;;;;12.07;96.17;98205.78;6179242;28;20638;-84
2022/06/11 02:15:32;;;;;;;7.33;6.13;;;;;;;12.05;96.08;98205.91;6163199;28;20542;-84
2022/06/11 02:18:34;;;;;;;8.20;7.13;;;;;;;12.04;96.26;98201.56;6163610;28;20396;-84
2022/06/11 02:21:46;;;;;;;7.33;6.40;;;;;;;12.00;96.45;98207.19;6163691;28;20681;-85
2022/06/11 02:24:54;;;;;;;6.97;6.27;;;;;;;11.97;96.38;98212.75;6182902;28;20304;-84
2022/06/11 02:28:00;;;;;;;8.20;6.47;;;;;;;11.94;96.25;98213.81;6164023;28;20775;-85
2022/06/11 02:31:06;;;;;;;7.87;6.57;;;;;;;11.92;96.38;98217.53;6163673;28;20232;-85
2022/06/11 02:34:09;;;;;;;7.07;6.47;;;;;;;11.93;96.41;98219.22;6163903;28;20586;-85
2022/06/11 02:37:34;;;;;;;6.70;6.20;;;;;;;11.89;96.52;98215.97;6180898;28;20268;-85
2022/06/11 02:40:41;;;;;;;6.53;6.00;;;;;;;11.86;96.76;98224.16;6163258;28;20298;-85
2022/06/11 02:43:44;;;;;;;7.40;6.70;;;;;;;11.84;96.55;98223.44;6179080;28;20609;-84
2022/06/11 02:46:47;;;;;;;7.87;6.37;;;;;;;11.81;96.70;98229.78;6209789;28;20266;-85
2022/06/11 02:49:50;;;;;;;9.20;7.33;;;;;;;11.79;96.65;98230.84;6236892;28;20237;-84
2022/06/11 02:52:54;;;;;;;6.73;6.13;;;;;;;11.76;97.07;98226.66;6237030;28;20387;-85
2022/06/11 02:55:56;;;;;;;7.50;6.70;;;;;;;11.76;96.91;98223.19;6228827;28;20346;-86
2022/06/11 02:58:58;;;;;;;7.60;6.83;;;;;;;11.77;96.72;98231.00;6230049;28;20333;-86
2022/06/11 03:02:00;;;;;;;7.87;6.67;;;;;;;11.76;96.97;98233.75;6229913;28;20242;-86
2022/06/11 03:05:04;;;;;;;6.93;6.30;;;;;;;11.75;96.82;98229.41;6228594;28;20254;-86
2022/06/11 03:08:08;;;;;;;7.03;6.43;;;;;;;11.75;96.63;98240.84;6250361;28;20293;-85
2022/06/11 03:11:10;;;;;;;6.70;6.10;;;;;;;11.74;96.81;98233.84;6212405;28;20250;-85
2022/06/11 03:14:13;;;;;;;7.03;6.30;;;;;;;11.76;97.06;98237.25;6213065;28;20318;-84
2022/06/11 03:17:18;;;;;;;6.73;6.10;;;;;;;11.80;96.85;98238.69;6213517;28;20325;-84
2022/06/11 03:20:23;;;;;;;7.47;6.13;;;;;;;11.82;97.14;98233.28;6211597;28;20223;-84
2022/06/11 03:23:26;;;;;;;7.37;6.63;;;;;;;11.82;97.14;98233.28;6212507;28;20884;-84
2022/06/11 03:26:29;;;;;;;7.67;6.10;;;;;;;11.86;97.16;98241.81;6204517;28;20235;-85
2022/06/11 03:29:31;;;;;;;7.10;6.37;;;;;;;11.87;96.70;98243.50;6196271;28;20289;-84
2022/06/11 03:32:33;;;;;;;6.57;5.97;;;;;;;11.86;97.04;98233.91;6211518;28;20246;-85
2022/06/11 03:35:36;;;;;;;6.63;6.00;;;;;;;11.86;96.79;98247.13;6212371;28;20607;-84
2022/06/11 03:38:40;;;;;;;7.27;6.57;;;;;;;11.86;96.81;98239.19;6211604;28;20234;-84
2022/06/11 03:41:43;;;;;;;7.50;6.80;;;;;;;11.86;97.04;98241.81;6211493;28;20591;-85
2022/06/11 03:44:45;;;;;;;10.50;6.97;;;;;;;11.87;96.86;98243.50;6203523;28;20330;-84
2022/06/11 03:47:47;;;;;;;7.60;6.80;;;;;;;11.86;96.99;98239.19;6200438;28;20235;-85
2022/06/11 03:50:49;;;;;;;8.27;6.17;;;;;;;11.86;97.04;98242.66;6223271;28;20715;-84
2022/06/11 03:53:51;;;;;;;7.13;6.40;;;;;;;11.90;97.03;98249.38;6196157;28;20243;-85
2022/06/11 03:56:54;;;;;;;7.10;6.40;;;;;;;11.91;97.15;98245.78;6190766;28;20599;-85
2022/06/11 03:59:57;;;;;;;8.07;6.77;;;;;;;11.95;97.34;98244.59;6194181;28;20243;-85
2022/06/11 04:02:59;;;;;;;7.27;6.57;;;;;;;12.00;97.34;98250.38;6224703;28;20373;-85
2022/06/11 04:06:02;;;;;;;7.57;6.33;;;;;;;12.03;97.00;98252.78;6194940;28;20219;-84
2022/06/11 04:09:08;;;;;;;6.90;6.23;;;;;;;12.06;97.27;98243.78;6225214;28;20672;-84
2022/06/11 04:12:15;;;;;;;7.03;6.53;;;;;;;12.10;96.99;98251.34;6219121;28;20296;-84
2022/06/11 04:15:18;;;;;;;6.30;5.80;;;;;;;12.09;97.23;98254.09;6235756;28;20591;-85
2022/06/11 04:18:38;;;;;;;7.07;6.37;;;;;;;12.12;97.21;98257.38;6234494;28;20224;-85
2022/06/11 04:21:40;;;;;;;6.90;6.30;;;;;;;12.13;97.46;98258.22;6252959;28;20223;-85
2022/06/11 04:24:44;;;;;;;7.07;6.40;;;;;;;12.15;97.17;98258.94;6219053;28;20598;-85
2022/06/11 04:27:46;;;;;;;6.53;5.53;;;;;;;12.19;97.50;98255.06;6234576;28;20745;-85
2022/06/11 04:30:48;;;;;;;6.60;6.10;;;;;;;12.22;97.17;98259.31;6235345;28;20226;-85
2022/06/11 04:33:51;;;;;;;8.03;6.03;;;;;;;12.25;97.59;98267.84;6223321;28;20215;-85
2022/06/11 04:36:55;;;;;;;7.20;6.03;;;;;;;12.27;97.08;98265.94;6223444;28;20226;-85
2022/06/11 04:39:59;;;;;;;7.10;6.20;;;;;;;12.28;97.07;98264.94;6223105;28;20231;-85
2022/06/11 04:43:02;;;;;;;7.13;6.37;;;;;;;12.33;97.12;98272.53;6240194;28;20595;-85
2022/06/11 04:46:04;;;;;;;6.57;5.97;;;;;;;12.38;96.95;98271.22;6232379;28;20307;-84
2022/06/11 04:49:07;;;;;;;6.97;5.83;;;;;;;12.41;97.17;98281.56;6232991;28;20306;-85
2022/06/11 04:52:09;;;;;;;6.70;6.10;;;;;;;12.46;97.20;98282.06;6223827;28;21035;-85
2022/06/11 04:55:13;;;;;;;6.50;5.90;;;;;;;12.50;97.01;98269.41;6232803;28;20235;-85
2022/06/11 04:58:15;;;;;;;6.93;6.33;;;;;;;12.56;97.26;98277.72;6238223;28;20779;-84
2022/06/11 05:01:18;;;;;;;6.30;5.80;;;;;;;12.62;96.42;98284.34;6240340;28;20234;-85
2022/06/11 05:04:20;;;;;;;6.30;5.70;;;;;;;12.67;96.96;98278.69;6234678;28;20236;-85
2022/06/11 05:07:27;;;;;;;7.37;6.13;;;;;;;12.74;96.58;98277.22;6239849;28;20227;-85
2022/06/11 05:10:34;;;;;;;7.10;6.40;;;;;;;12.82;96.70;98282.75;6214531;28;20232;-85
2022/06/11 05:13:39;;;;;;;7.03;5.70;;;;;;;12.92;96.39;98286.34;6207817;28;20609;-84
2022/06/11 05:16:44;;;;;;;8.30;5.87;;;;;;;13.03;96.31;98288.16;6190775;28;20267;-85
2022/06/11 05:19:46;;;;;;;9.60;5.90;;;;;;;13.13;96.28;98283.78;6214366;28;20231;-85
2022/06/11 05:22:49;;;;;;;7.63;5.83;;;;;;;13.23;95.86;98284.75;6214515;28;20693;-85
2022/06/11 05:25:51;;;;;;;6.77;5.03;;;;;;;13.33;95.56;98290.16;6199058;28;20235;-85
2022/06/11 05:28:53;;;;;;;6.33;5.73;;;;;;;13.39;95.30;98284.34;6214591;28;20725;-85
2022/06/11 05:31:56;;;;;;;5.70;5.07;;;;;;;13.47;95.18;98285.41;6215315;28;20309;-86
2022/06/11 05:35:00;;;;;;;6.77;5.67;;;;;;;13.58;94.42;98281.84;6214692;28;20322;-85
2022/06/11 05:38:06;;;;;;;5.20;4.70;;;;;;;13.76;94.54;98284.81;6214421;28;20244;-85
2022/06/11 05:41:09;;;;;;;5.73;4.80;;;;;;;13.87;93.55;98284.75;6231564;28;20224;-85
2022/06/11 05:44:11;;;;;;;6.83;4.70;;;;;;;14.00;92.89;98283.56;6213517;28;20958;-85
2022/06/11 05:47:17;;;;;;;6.50;4.50;;;;;;;14.11;92.29;98285.31;6214427;28;20276;-85
2022/06/11 05:50:24;;;;;;;4.50;3.97;;;;;;;14.23;91.68;98288.75;6214643;28;20278;-85
2022/06/11 05:53:31;;;;;;;5.07;4.20;;;;;;;14.43;89.00;98295.88;6215220;28;20699;-84
2022/06/11 05:56:33;;;;;;;4.47;4.07;;;;;;;14.61;88.10;98291.63;6214369;28;20219;-85
2022/06/11 05:59:43;;;;;;;6.20;3.60;;;;;;;14.75;87.13;98293.09;6207042;28;20239;-84
2022/06/11 06:02:45;;;;;;;4.50;3.63;;;;;;;14.81;86.99;98297.84;6197762;28;20274;-84
2022/06/11 06:05:48;;;;;;;3.90;3.47;;;;;;;14.84;86.94;98302.06;6213820;28;20830;-86
2022/06/11 06:08:50;;;;;;;4.43;3.13;;;;;;;15.00;84.17;98303.22;6229990;28;20301;-85
2022/06/11 06:11:52;;;;;;;4.33;3.30;;;;;;;15.14;82.67;98297.53;6230645;28;20621;-85
2022/06/11 06:15:09;;;;;;;5.00;3.40;;;;;;;15.36;79.49;98300.94;6214329;28;20259;-85
2022/06/11 06:18:11;;;;;;;4.00;3.00;;;;;;;15.50;79.35;98295.19;6212456;28;20309;-87
2022/06/11 06:21:14;;;;;;;3.47;3.07;;;;;;;15.63;78.78;98303.78;6214405;28;20289;-86
2022/06/11 06:24:17;;;;;;;3.67;2.87;;;;;;;15.80;78.25;98300.41;6196837;28;20216;-87
2022/06/11 06:27:19;;;;;;;4.13;3.13;;;;;;;15.89;79.17;98304.06;6200627;28;20221;-86
2022/06/11 06:30:21;;;;;;;5.70;3.07;;;;;;;15.98;78.81;98307.69;6223096;28;20436;-86
2022/06/11 06:33:23;;;;;;;4.10;2.60;;;;;;;16.17;77.42;98308.50;6226852;28;20255;-84
2022/06/11 06:36:27;;;;;;;4.43;2.57;;;;;;;16.40;75.85;98308.19;6227923;28;20228;-85
2022/06/11 06:39:31;;;;;;;4.80;2.43;;;;;;;16.69;74.81;98302.78;6204800;28;20220;-85
2022/06/11 06:42:34;;;;;;;3.33;2.53;;;;;;;16.96;74.18;98309.00;6199972;28;20219;-85
2022/06/11 06:45:36;;;;;;;4.20;2.33;;;;;;;17.17;73.39;98303.41;6204967;28;20605;-85
2022/06/11 06:48:38;;;;;;;3.60;2.50;;;;;;;17.34;72.14;98307.94;6211202;28;20342;-85
2022/06/11 06:51:40;;;;;;;3.07;2.37;;;;;;;17.59;70.58;98305.50;6211986;28;20758;-85
2022/06/11 06:54:42;;;;;;;4.43;2.30;;;;;;;17.87;69.12;98309.81;6211857;28;20306;-85
2022/06/11 06:57:44;;;;;;;4.00;2.60;;;;;;;18.14;68.50;98300.03;6172126;28;20768;-85
2022/06/11 07:00:46;;;;;;;2.70;2.23;;;;;;;18.39;67.92;98308.06;6227070;28;20240;-85
2022/06/11 07:03:49;;;;;;;2.50;2.10;;;;;;;18.56;67.19;98300.16;6212252;28;20711;-85
2022/06/11 07:07:16;;;;;;;2.20;2.10;;;;;;;18.87;66.59;98303.16;6213585;28;20643;-85
2022/06/11 07:10:20;;;;;;;4.07;2.10;;;;;;;19.06;66.25;98303.78;6228207;28;20290;-85
2022/06/11 07:13:22;;;;;;;2.87;2.13;;;;;;;19.20;65.79;98306.81;6223890;28;20702;-86
2022/06/11 07:16:32;;;;;;;2.73;2.50;;;;;;;19.36;64.11;98305.06;6236517;28;20231;-84
2022/06/11 07:19:45;;;;;;;2.00;1.80;;;;;;;19.48;64.17;98308.28;6236854;28;20662;-85
2022/06/11 07:22:56;;;;;;;4.13;2.40;;;;;;;19.69;62.78;98302.47;6219712;28;20313;-85
2022/06/11 07:25:59;;;;;;;2.23;2.00;;;;;;;19.79;62.80;98301.31;6254487;28;20404;-85
2022/06/11 07:29:07;;;;;;;4.20;2.17;;;;;;;20.19;61.76;98302.31;6235611;28;20245;-85
2022/06/11 07:32:17;;;;;;;2.77;2.47;;;;;;;20.55;60.25;98303.66;6228106;28;20657;-85
2022/06/11 07:35:20;;;;;;;3.67;2.40;;;;;;;20.89;59.95;98298.00;6222723;28;20250;-85
2022/06/11 07:38:22;;;;;;;4.97;2.20;;;;;;;21.06;60.12;98304.19;6223480;28;20261;-85
2022/06/11 07:41:25;;;;;;;2.70;2.47;;;;;;;21.27;60.71;98300.91;6219909;28;20714;-84
2022/06/11 07:44:27;;;;;;;1.97;1.87;;;;;;;21.33;58.40;98301.06;6233938;28;20667;-86
2022/06/11 07:50:56;;;;;;;4.87;2.30;;;;;;;21.64;58.10;98302.91;6220563;28;20319;-86
2022/06/11 07:53:58;;;;;;;2.80;2.20;;;;;;;21.81;57.21;98304.44;6218863;28;20231;-85
2022/06/11 07:57:00;;;;;;;2.53;2.27;;;;;;;22.11;56.25;98309.97;6219682;28;20776;-85
2022/06/11 08:00:13;;;;;;;2.97;2.20;;;;;;;22.16;55.11;98305.69;6210313;28;20236;-85
2022/06/11 08:03:18;;;;;;;4.13;2.40;;;;;;;22.34;54.49;98302.72;6171484;28;20221;-85
2022/06/11 08:06:20;;;;;;;3.57;2.17;;;;;;;22.72;53.56;98296.25;6167701;28;20615;-85
2022/06/11 08:09:22;;;;;;;4.30;2.57;;;;;;;22.93;52.13;98300.94;6212853;28;20282;-85
2022/06/11 08:12:25;;;;;;;2.00;1.80;;;;;;;23.14;52.38;98301.03;6229616;28;20227;-85
2022/06/11 08:15:27;;;;;;;3.20;2.10;;;;;;;23.49;52.22;98295.84;6206010;28;20322;-85
2022/06/11 08:18:31;;;;;;;4.80;2.50;;;;;;;23.56;51.97;98296.78;6221025;28;20226;-86
2022/06/11 08:21:33;;;;;;;2.10;1.90;;;;;;;23.77;51.48;98291.41;6234932;28;20733;-85
2022/06/11 08:24:35;;;;;;;3.10;2.07;;;;;;;23.96;49.94;98299.91;6248750;28;20219;-85
2022/06/11 08:27:37;;;;;;;3.47;2.47;;;;;;;23.53;49.06;98300.69;6218882;28;20656;-86
2022/06/11 08:30:40;;;;;;;2.20;2.00;;;;;;;23.66;48.65;98296.50;6236116;28;20674;-86
2022/06/11 08:33:42;;;;;;;2.17;1.97;;;;;;;23.99;48.66;98300.34;6251944;28;20691;-86
2022/06/11 08:36:44;;;;;;;4.30;2.40;;;;;;;24.20;46.63;98286.84;6235550;28;20250;-86
2022/06/11 08:39:46;;;;;;;4.77;2.23;;;;;;;24.00;46.79;98283.13;6236093;28;20211;-85
2022/06/11 08:43:14;;;;;;;3.53;1.90;;;;;;;24.53;50.70;98287.13;6229200;28;20223;-86
2022/06/11 08:46:24;;;;;;;3.27;1.83;;;;;;;24.80;50.03;98279.19;6177007;28;20642;-85
2022/06/11 08:49:45;;;;;;;2.80;1.70;;;;;;;25.10;50.12;98282.50;6229637;28;20227;-86
2022/06/11 08:52:47;;;;;;;2.93;1.93;;;;;;;24.97;46.24;98276.00;6209810;28;20715;-85
2022/06/11 08:55:50;;;;;;;2.90;1.80;;;;;;;25.57;45.81;98279.78;6211313;28;20231;-85
2022/06/11 08:59:08;;;;;;;6.30;2.00;;;;;;;25.71;45.28;98272.56;6210162;28;20239;-84
2022/06/11 09:02:36;;;;;;;3.85;2.00;;;;;;;25.85;44.68;98281.56;6248520;28;20232;-85
2022/06/11 09:05:54;;;;;;;2.30;1.50;;;;;;;25.77;45.44;98270.91;6228129;28;20231;-85
2022/06/11 09:09:07;;;;;;;6.45;2.30;;;;;;;25.92;44.37;98275.09;6242706;28;20723;-86
2022/06/11 09:12:38;;;;;;;3.55;1.80;;;;;;;25.81;45.96;98280.28;6186644;28;20415;-85
2022/06/11 09:16:00;;;;;;;2.65;1.50;;;;;;;26.25;47.54;98271.59;6191991;28;20232;-85
2022/06/11 09:19:40;;;;;;;2.08;1.70;;;;;;;26.76;45.11;98269.03;6221794;28;20225;-86
2022/06/11 09:22:51;;;;;;;3.10;1.45;;;;;;;26.53;43.13;98271.41;6182526;28;20728;-86
2022/06/11 09:25:53;;;;;;;1.33;1.15;;;;;;;27.04;42.74;98264.22;6206271;28;20720;-85
2022/06/11 09:29:11;;;;;;;2.75;1.63;;;;;;;26.89;37.47;98279.84;6229907;28;20227;-85
2022/06/11 09:32:29;;;;;;;2.15;1.58;;;;;;;26.85;42.35;98275.09;6209276;28;20239;-85
2022/06/11 09:35:41;;;;;;;3.03;1.55;;;;;;;27.57;42.39;98266.72;6218337;28;20231;-85
2022/06/11 09:39:17;;;;;;;3.58;1.65;;;;;;;27.77;40.30;98272.03;6230690;28;20304;-85
2022/06/11 09:42:42;;;;;;;3.05;1.50;;;;;;;27.70;43.27;98276.66;6238987;28;20227;-85
2022/06/11 09:45:50;;;;;;;2.67;1.30;;;;;;;27.25;41.88;98282.09;6232415;28;20298;-85
2022/06/11 09:48:58;;;;;;;2.45;1.35;;;;;;;27.24;40.09;98261.44;6239025;28;20604;-85
2022/06/11 09:52:20;;;;;;;4.50;1.52;;;;;;;27.51;38.19;98275.69;6231163;28;20266;-85
2022/06/11 09:55:35;;;;;;;4.95;1.50;;;;;;;26.73;40.06;98269.50;6255287;28;20231;-85
2022/06/11 09:59:00;;;;;;;5.03;1.63;;;;;;;26.89;39.18;98260.91;6237701;28;20276;-85
2022/06/11 10:02:18;;;;;;;2.45;1.63;;;;;;;27.85;41.38;98248.16;6185189;28;20240;-85
2022/06/11 10:05:27;;;;;;;3.92;1.50;;;;;;;26.99;37.18;98244.22;6242177;28;20310;-85
2022/06/11 10:08:49;;;;;;;2.47;1.42;;;;;;;26.22;42.75;98251.19;6244857;28;20228;-85
2022/06/11 10:11:56;;;;;;;2.10;1.40;;;;;;;26.98;41.94;98250.69;6213670;28;20298;-85
2022/06/11 10:15:11;;;;;;;2.38;1.55;;;;;;;27.52;37.67;98247.53;6214656;28;20215;-85
2022/06/11 10:18:30;;;;;;;3.42;1.50;;;;;;;27.52;39.47;98239.41;6188985;28;20239;-85
2022/06/11 10:21:32;;;;;;;2.25;1.88;;;;;;;27.42;39.67;98236.34;6210025;28;20228;-85
2022/06/11 10:24:38;;;;;;;4.25;1.50;;;;;;;27.68;37.72;98241.63;6229594;28;20223;-85
2022/06/11 10:27:48;;;;;;;3.63;1.40;;;;;;;27.70;38.18;98239.53;6184685;28;20228;-85
2022/06/11 10:30:56;;;;;;;5.97;1.58;;;;;;;27.31;38.62;98231.59;6205192;28;20252;-85
2022/06/11 10:34:03;;;;;;;2.80;1.20;;;;;;;26.70;39.15;98234.69;6233636;28;20240;-85
2022/06/11 10:37:21;;;;;;;2.45;1.30;;;;;;;27.49;41.33;98239.81;6236429;28;20443;-85
2022/06/11 10:40:31;;;;;;;3.85;1.50;;;;;;;27.68;38.82;98233.47;6197482;28;20240;-85
2022/06/11 10:43:54;;;;;;;2.65;1.50;;;;;;;28.07;38.96;98236.94;6213177;28;20612;-85
2022/06/11 10:46:57;;;;;;;3.00;1.27;;;;;;;28.25;37.48;98228.88;6204697;28;20597;-85
2022/06/11 10:50:11;;;;;;;1.70;1.08;;;;;;;28.42;36.80;98221.03;6188855;28;20611;-85
2022/06/11 10:53:35;;;;;;;1.85;1.02;;;;;;;28.50;36.75;98218.00;6212672;28;20232;-85
2022/06/11 10:56:46;;;;;;;2.15;1.13;;;;;;;28.58;36.13;98215.00;6212318;28;20231;-85
2022/06/11 10:59:56;;;;;;;1.70;1.23;;;;;;;28.34;37.08;98216.72;6233383;28;20766;-85
2022/06/11 11:03:05;;;;;;;3.75;1.50;;;;;;;28.82;36.75;98210.59;6213285;28;20224;-86
2022/06/11 11:06:17;;;;;;;3.05;1.52;;;;;;;29.11;34.06;98215.25;6229784;28;20570;-86
2022/06/11 11:09:24;;;;;;;3.45;1.40;;;;;;;28.20;33.30;98202.44;6180158;28;20705;-85
2022/06/11 11:12:33;;;;;;;1.20;1.05;;;;;;;28.63;37.83;98207.03;6167354;28;20290;-85
2022/06/11 11:15:41;;;;;;;2.17;1.17;;;;;;;29.23;35.99;98209.91;6228577;28;20306;-85
2022/06/11 11:19:11;;;;;;;2.05;1.13;;;;;;;28.61;33.11;98209.97;6195650;28;20730;-86
2022/06/11 11:22:19;;;;;;;2.05;1.20;;;;;;;27.55;35.66;98209.97;6212120;28;20704;-86
2022/06/11 11:25:29;;;;;;;3.15;1.30;;;;;;;27.15;37.85;98203.91;6195536;28;20787;-86
2022/06/11 11:28:50;;;;;;;1.42;1.15;;;;;;;28.17;38.66;98204.75;6196966;28;20575;-86
2022/06/11 11:32:01;;;;;;;2.50;1.17;;;;;;;29.08;39.29;98202.13;6224159;28;20263;-86
2022/06/11 11:35:24;;;;;;;1.80;1.35;;;;;;;28.50;39.75;98188.97;6198604;28;20228;-84
2022/06/11 11:38:28;;;;;;;3.42;1.30;;;;;;;28.53;37.08;98193.13;6211025;28;20228;-85
2022/06/11 11:41:33;;;;;;;1.95;1.13;;;;;;;29.15;35.98;98189.25;6211357;28;20542;-85
2022/06/11 11:44:41;;;;;;;2.22;1.17;;;;;;;29.46;34.72;98187.41;6210741;28;20235;-85
2022/06/11 11:47:43;;;;;;;4.47;1.33;;;;;;;29.94;33.59;98168.25;6211675;28;20219;-85
2022/06/11 11:50:50;;;;;;;4.00;1.23;;;;;;;30.41;33.03;98177.28;6210795;28;20238;-85
2022/06/11 11:53:58;;;;;;;2.95;1.20;;;;;;;30.49;34.62;98173.38;6229207;28;20912;-85
2022/06/11 11:57:05;;;;;;;2.58;1.13;;;;;;;29.47;34.29;98178.19;6186771;28;20224;-85
2022/06/11 12:00:47;;;;;;;5.60;1.10;;;;;;;28.00;37.55;98184.63;6211796;28;20267;-85
2022/06/11 12:04:06;;;;;;;2.00;1.15;;;;;;;28.60;37.64;98181.13;6204263;28;20370;-85
2022/06/11 12:07:14;;;;;;;2.10;1.10;;;;;;;28.94;33.54;98166.16;6187814;28;20268;-85
2022/06/11 12:10:38;;;;;;;2.10;1.10;;;;;;;29.26;36.15;98169.47;6212606;28;20255;-86
2022/06/11 12:13:51;;;;;;;3.00;1.20;;;;;;;28.75;33.20;98166.34;6227044;28;20697;-85
2022/06/11 12:16:56;;;;;;;1.85;1.10;;;;;;;27.70;34.63;98174.44;6234428;28;20703;-85
2022/06/11 12:20:04;;;;;;;1.20;1.10;;;;;;;27.70;35.20;98169.00;6210937;28;20635;-85
2022/06/11 12:23:33;;;;;;;2.22;1.15;;;;;;;28.68;38.54;98176.44;6211510;28;20326;-85
2022/06/11 12:26:41;;;;;;;1.27;1.02;;;;;;;28.95;37.57;98175.94;6229096;28;20266;-85
2022/06/11 12:29:56;;;;;;;4.80;1.30;;;;;;;29.24;35.17;98163.44;6204301;28;20274;-85
2022/06/11 12:33:00;;;;;;;2.47;1.08;;;;;;;29.33;35.05;98167.50;6209712;28;20239;-85
2022/06/11 12:36:15;;;;;;;1.50;1.00;;;;;;;30.11;35.78;98168.41;6243959;28;20259;-85
2022/06/11 12:39:35;;;;;;;4.80;1.20;;;;;;;29.73;32.25;98166.94;6229352;28;20240;-85
2022/06/11 12:42:56;;;;;;;2.70;1.23;;;;;;;29.63;32.13;98151.16;6226336;28;20243;-85
2022/06/11 12:46:07;;;;;;;4.20;1.10;;;;;;;29.80;31.64;98151.31;6210988;28;20242;-85
2022/06/11 12:49:10;;;;;;;2.03;1.23;;;;;;;30.43;34.21;98153.38;6227605;28;20236;-86
2022/06/11 12:52:47;;;;;;;4.38;1.00;;;;;;;30.76;29.88;98148.13;6226599;28;20699;-85
2022/06/11 12:56:14;;;;;;;1.85;1.23;;;;;;;30.52;31.85;98148.38;6208154;28;21098;-85
2022/06/11 12:59:38;;;;;;;1.95;1.17;;;;;;;30.18;30.21;98148.16;6215836;28;20232;-85
2022/06/11 13:02:43;;;;;;;2.85;1.25;;;;;;;30.37;30.33;98135.25;6233062;28;20695;-86
2022/06/11 13:06:23;;;;;;;1.73;1.10;;;;;;;30.75;29.48;98132.00;6207449;28;20251;-85
2022/06/11 13:09:43;;;;;;;3.55;1.33;;;;;;;31.48;31.58;98137.53;6220288;28;20252;-85
2022/06/11 13:13:03;;;;;;;1.23;1.00;;;;;;;31.51;28.62;98119.84;6222726;28;20239;-85
2022/06/11 13:16:21;;;;;;;1.30;0.80;;;;;;;31.13;28.67;98134.19;6245070;28;20661;-86
2022/06/11 13:19:34;;;;;;;5.28;1.40;;;;;;;31.50;29.06;98120.94;6221160;28;20323;-86
2022/06/11 13:22:47;;;;;;;2.10;1.17;;;;;;;30.71;28.63;98119.94;6230417;28;20654;-85
2022/06/11 13:26:28;;;;;;;2.15;1.00;;;;;;;29.38;31.44;98130.63;6230702;28;20295;-86
2022/06/11 13:29:40;;;;;;;1.95;1.10;;;;;;;28.91;32.30;98120.38;6236963;28;20622;-85
2022/06/11 13:32:46;;;;;;;2.80;0.88;;;;;;;29.50;33.55;98120.63;6230915;28;20235;-85
2022/06/11 13:35:58;;;;;;;1.73;1.20;;;;;;;30.02;34.54;98119.78;6229097;28;20622;-85
2022/06/11 13:39:28;;;;;;;2.28;1.33;;;;;;;30.53;29.44;98118.22;6229899;28;20257;-85
2022/06/11 13:42:41;;;;;;;2.10;1.15;;;;;;;30.31;30.16;98117.97;6229339;28;20216;-85
2022/06/11 13:45:57;;;;;;;1.50;1.00;;;;;;;30.67;32.44;98116.03;6224572;28;20359;-85
2022/06/11 13:49:09;;;;;;;1.92;0.90;;;;;;;31.81;31.45;98114.13;6216727;28;20216;-85
2022/06/11 13:55:10;;;;;;;1.70;1.23;;;;;;;32.56;32.13;98102.66;6234034;28;20243;-86
2022/06/11 13:55:50;;;;;;;1.10;0.80;;;;;;;33.45;27.84;98113.25;6231998;28;20298;-86
2022/06/11 13:59:04;;;;;;;3.55;1.02;;;;;;;34.29;28.24;98117.00;6215986;28;20271;-86
2022/06/11 15:01:56;;;;;;;3.92;1.30;;;;;;;42.04;17.79;98052.56;3589971;28;22028;-85
2022/06/11 15:05:14;;;;;;;1.70;1.23;;;;;;;42.87;16.08;98055.50;6189148;28;20240;-86
2022/06/11 15:08:22;;;;;;;2.00;1.20;;;;;;;42.31;17.87;98057.09;6207036;28;20224;-86
2022/06/11 15:11:39;;;;;;;2.17;1.05;;;;;;;42.69;16.90;98037.97;6205979;28;20693;-87
2022/06/11 15:14:56;;;;;;;3.40;1.15;;;;;;;37.77;23.54;98047.34;6189236;28;20310;-86
2022/06/11 15:18:08;;;;;;;1.70;0.95;;;;;;;38.67;20.66;98041.16;6227188;28;20262;-86
2022/06/11 15:21:36;;;;;;;1.33;0.70;;;;;;;40.90;18.80;98045.63;6228463;28;20695;-86
2022/06/11 15:24:46;;;;;;;0.73;0.73;;;;;;;41.49;17.68;98035.38;6218697;28;20235;-86
2022/06/11 15:27:52;;;;;;;2.65;0.80;;;;;;;41.64;18.14;98038.59;6196965;28;20778;-86
2022/06/11 15:31:01;;;;;;;1.63;0.80;;;;;;;42.46;17.20;98040.03;6228149;28;20271;-86
2022/06/11 15:34:05;;;;;;;1.38;0.93;;;;;;;41.61;17.28;98028.16;6179761;28;20242;-86
2022/06/11 15:37:16;;;;;;;1.38;1.02;;;;;;;41.23;17.89;98035.16;6220614;28;20708;-86
2022/06/11 15:40:26;;;;;;;2.10;1.13;;;;;;;41.49;16.54;98033.41;6211509;28;20327;-86
2022/06/11 15:43:33;;;;;;;6.63;5.30;;;;;;;39.32;20.52;98030.31;6184900;28;20327;-86
2022/06/11 15:46:39;;;;;;;3.92;3.10;;;;;;;39.93;20.46;98029.31;6241249;28;20263;-85
2022/06/11 15:49:45;;;;;;;6.40;5.80;;;;;;;41.17;18.69;98023.41;6249868;28;20235;-86
2022/06/11 15:52:58;;;;;;;4.80;1.13;;;;;;;40.93;19.37;98042.19;6228732;28;20314;-86
2022/06/11 15:56:15;;;;;;;3.95;1.30;;;;;;;40.20;20.44;98035.69;6228612;28;20251;-86